sensor_id;sensor_type;location;lat;lon;timestamp;temperature;humidity
5576;DHT22;2810;50.134;8.626;2022-07-24T00:00:06;21.80;98.60
5576;DHT22;2810;50.134;8.626;2022-07-24T00:02:32;21.70;99.00
5576;DHT22;2810;50.134;8.626;2022-07-24T00:04:58;21.50;99.50
5576;DHT22;2810;50.134;8.626;2022-07-24T00:07:25;21.50;99.60
5576;DHT22;2810;50.134;8.626;2022-07-24T00:09:51;21.50;99.90
5576;DHT22;2810;50.134;8.626;2022-07-24T00:12:16;21.40;99.90
5576;DHT22;2810;50.134;8.626;2022-07-24T00:14:42;21.30;99.90
5576;DHT22;2810;50.134;8.626;2022-07-24T00:17:07;21.20;99.90
5576;DHT22;2810;50.134;8.626;2022-07-24T00:19:33;21.10;99.90
5576;DHT22;2810;50.134;8.626;2022-07-24T00:21:58;21.10;99.90
5576;DHT22;2810;50.134;8.626;2022-07-24T00:24:25;21.10;99.90
5576;DHT22;2810;50.134;8.626;2022-07-24T00:26:50;21.00;99.90
5576;DHT22;2810;50.134;8.626;2022-07-24T00:29:16;21.00;99.90
5576;DHT22;2810;50.134;8.626;2022-07-24T00:31:42;20.90;99.90
5576;DHT22;2810;50.134;8.626;2022-07-24T00:34:08;21.00;99.90
5576;DHT22;2810;50.134;8.626;2022-07-24T00:36:33;20.90;99.90
5576;DHT22;2810;50.134;8.626;2022-07-24T00:38:58;20.80;99.90
5576;DHT22;2810;50.134;8.626;2022-07-24T00:41:24;20.80;99.90
5576;DHT22;2810;50.134;8.626;2022-07-24T00:43:59;20.80;99.90
5576;DHT22;2810;50.134;8.626;2022-07-24T00:46:25;20.70;99.90
5576;DHT22;2810;50.134;8.626;2022-07-24T00:48:50;20.70;99.90
5576;DHT22;2810;50.134;8.626;2022-07-24T00:51:16;20.70;99.90
5576;DHT22;2810;50.134;8.626;2022-07-24T00:53:41;21.00;99.90
5576;DHT22;2810;50.134;8.626;2022-07-24T00:56:07;20.60;99.90
5576;DHT22;2810;50.134;8.626;2022-07-24T00:58:32;20.50;99.90
5576;DHT22;2810;50.134;8.626;2022-07-24T01:00:58;20.50;99.90
5576;DHT22;2810;50.134;8.626;2022-07-24T01:03:23;20.40;99.90
5576;DHT22;2810;50.134;8.626;2022-07-24T01:05:48;20.40;99.90
5576;DHT22;2810;50.134;8.626;2022-07-24T01:08:14;20.40;99.90
5576;DHT22;2810;50.134;8.626;2022-07-24T01:10:40;20.40;99.90
5576;DHT22;2810;50.134;8.626;2022-07-24T01:13:05;20.30;99.90
5576;DHT22;2810;50.134;8.626;2022-07-24T01:15:31;20.40;99.90
5576;DHT22;2810;50.134;8.626;2022-07-24T01:17:56;20.50;99.90
5576;DHT22;2810;50.134;8.626;2022-07-24T01:20:21;20.60;99.90
5576;DHT22;2810;50.134;8.626;2022-07-24T01:22:47;20.60;99.90
5576;DHT22;2810;50.134;8.626;2022-07-24T01:25:13;20.60;99.90
5576;DHT22;2810;50.134;8.626;2022-07-24T01:27:38;20.50;99.90
5576;DHT22;2810;50.134;8.626;2022-07-24T01:30:04;20.40;99.90
5576;DHT22;2810;50.134;8.626;2022-07-24T01:32:29;20.30;99.90
5576;DHT22;2810;50.134;8.626;2022-07-24T01:34:55;20.40;99.90
5576;DHT22;2810;50.134;8.626;2022-07-24T01:37:20;20.20;99.90
5576;DHT22;2810;50.134;8.626;2022-07-24T01:39:45;20.10;99.90
5576;DHT22;2810;50.134;8.626;2022-07-24T01:42:11;20.00;99.90
5576;DHT22;2810;50.134;8.626;2022-07-24T01:44:36;19.90;99.90
5576;DHT22;2810;50.134;8.626;2022-07-24T01:47:02;19.90;99.90
5576;DHT22;2810;50.134;8.626;2022-07-24T01:49:27;19.90;99.90
5576;DHT22;2810;50.134;8.626;2022-07-24T01:51:53;19.90;99.90
5576;DHT22;2810;50.134;8.626;2022-07-24T01:54:18;19.80;99.90
5576;DHT22;2810;50.134;8.626;2022-07-24T01:56:44;19.90;99.90
5576;DHT22;2810;50.134;8.626;2022-07-24T01:59:09;19.90;99.90
5576;DHT22;2810;50.134;8.626;2022-07-24T02:01:35;19.80;99.90
5576;DHT22;2810;50.134;8.626;2022-07-24T02:04:00;19.80;99.90
5576;DHT22;2810;50.134;8.626;2022-07-24T02:06:26;19.90;99.90
5576;DHT22;2810;50.134;8.626;2022-07-24T02:08:51;20.00;99.90
5576;DHT22;2810;50.134;8.626;2022-07-24T02:11:16;20.10;99.90
5576;DHT22;2810;50.134;8.626;2022-07-24T02:13:44;20.20;99.90
5576;DHT22;2810;50.134;8.626;2022-07-24T02:16:10;20.20;99.90
5576;DHT22;2810;50.134;8.626;2022-07-24T02:18:35;20.10;99.90
5576;DHT22;2810;50.134;8.626;2022-07-24T02:21:01;20.00;99.90
5576;DHT22;2810;50.134;8.626;2022-07-24T02:23:27;19.90;99.90
5576;DHT22;2810;50.134;8.626;2022-07-24T02:25:52;19.80;99.90
5576;DHT22;2810;50.134;8.626;2022-07-24T02:28:18;19.70;99.90
5576;DHT22;2810;50.134;8.626;2022-07-24T02:30:43;19.70;99.90
5576;DHT22;2810;50.134;8.626;2022-07-24T02:33:09;19.60;99.90
5576;DHT22;2810;50.134;8.626;2022-07-24T02:35:35;19.60;99.90
5576;DHT22;2810;50.134;8.626;2022-07-24T02:38:01;19.60;99.90
5576;DHT22;2810;50.134;8.626;2022-07-24T02:40:26;19.70;99.90
5576;DHT22;2810;50.134;8.626;2022-07-24T02:42:52;19.80;99.90
5576;DHT22;2810;50.134;8.626;2022-07-24T02:45:17;19.80;99.90
5576;DHT22;2810;50.134;8.626;2022-07-24T02:47:47;19.80;99.90
5576;DHT22;2810;50.134;8.626;2022-07-24T02:50:13;19.80;99.90
5576;DHT22;2810;50.134;8.626;2022-07-24T02:52:39;19.90;99.90
5576;DHT22;2810;50.134;8.626;2022-07-24T02:55:04;19.90;99.90
5576;DHT22;2810;50.134;8.626;2022-07-24T02:57:30;20.00;99.90
5576;DHT22;2810;50.134;8.626;2022-07-24T02:59:55;20.10;99.90
5576;DHT22;2810;50.134;8.626;2022-07-24T03:02:21;20.20;99.90
5576;DHT22;2810;50.134;8.626;2022-07-24T03:04:46;20.20;99.90
5576;DHT22;2810;50.134;8.626;2022-07-24T03:07:12;20.00;99.90
5576;DHT22;2810;50.134;8.626;2022-07-24T03:09:37;20.00;99.90
5576;DHT22;2810;50.134;8.626;2022-07-24T03:12:03;19.90;99.90
5576;DHT22;2810;50.134;8.626;2022-07-24T03:14:28;20.00;99.90
5576;DHT22;2810;50.134;8.626;2022-07-24T03:16:53;19.70;99.90
5576;DHT22;2810;50.134;8.626;2022-07-24T03:19:19;19.60;99.90
5576;DHT22;2810;50.134;8.626;2022-07-24T03:21:44;19.50;99.90
5576;DHT22;2810;50.134;8.626;2022-07-24T03:24:10;19.40;99.90
5576;DHT22;2810;50.134;8.626;2022-07-24T03:26:35;19.40;99.90
5576;DHT22;2810;50.134;8.626;2022-07-24T03:29:00;19.40;99.90
5576;DHT22;2810;50.134;8.626;2022-07-24T03:31:26;19.40;99.90
5576;DHT22;2810;50.134;8.626;2022-07-24T03:33:51;19.40;99.90
5576;DHT22;2810;50.134;8.626;2022-07-24T03:36:17;19.40;99.90
5576;DHT22;2810;50.134;8.626;2022-07-24T03:38:42;19.90;99.90
5576;DHT22;2810;50.134;8.626;2022-07-24T03:41:08;19.40;99.90
5576;DHT22;2810;50.134;8.626;2022-07-24T03:43:33;19.40;99.90
5576;DHT22;2810;50.134;8.626;2022-07-24T03:45:59;19.70;99.90
5576;DHT22;2810;50.134;8.626;2022-07-24T03:48:24;20.30;99.90
5576;DHT22;2810;50.134;8.626;2022-07-24T03:50:49;19.80;99.90
5576;DHT22;2810;50.134;8.626;2022-07-24T03:53:15;19.70;99.90
5576;DHT22;2810;50.134;8.626;2022-07-24T03:55:40;19.70;99.90
5576;DHT22;2810;50.134;8.626;2022-07-24T03:58:06;19.70;99.90
5576;DHT22;2810;50.134;8.626;2022-07-24T04:00:31;19.80;99.90
5576;DHT22;2810;50.134;8.626;2022-07-24T04:02:57;19.70;99.90
5576;DHT22;2810;50.134;8.626;2022-07-24T04:05:22;19.60;99.90
5576;DHT22;2810;50.134;8.626;2022-07-24T04:07:47;19.60;99.90
5576;DHT22;2810;50.134;8.626;2022-07-24T04:10:13;19.50;99.90
5576;DHT22;2810;50.134;8.626;2022-07-24T04:12:38;19.40;99.90
5576;DHT22;2810;50.134;8.626;2022-07-24T04:15:04;19.40;99.90
5576;DHT22;2810;50.134;8.626;2022-07-24T04:17:29;19.40;99.90
5576;DHT22;2810;50.134;8.626;2022-07-24T04:19:55;19.40;99.90
5576;DHT22;2810;50.134;8.626;2022-07-24T04:22:20;19.50;99.90
5576;DHT22;2810;50.134;8.626;2022-07-24T04:24:46;19.50;99.90
5576;DHT22;2810;50.134;8.626;2022-07-24T04:27:11;19.40;99.90
5576;DHT22;2810;50.134;8.626;2022-07-24T04:29:37;19.50;99.90
5576;DHT22;2810;50.134;8.626;2022-07-24T04:32:02;19.40;99.90
5576;DHT22;2810;50.134;8.626;2022-07-24T04:34:28;19.40;99.90
5576;DHT22;2810;50.134;8.626;2022-07-24T04:36:53;19.40;99.90
5576;DHT22;2810;50.134;8.626;2022-07-24T04:39:19;19.40;99.90
5576;DHT22;2810;50.134;8.626;2022-07-24T04:41:44;19.50;99.90
5576;DHT22;2810;50.134;8.626;2022-07-24T04:44:10;19.50;99.90
5576;DHT22;2810;50.134;8.626;2022-07-24T04:46:35;19.60;99.90
5576;DHT22;2810;50.134;8.626;2022-07-24T04:49:00;19.60;99.90
5576;DHT22;2810;50.134;8.626;2022-07-24T04:51:26;19.50;99.90
5576;DHT22;2810;50.134;8.626;2022-07-24T04:53:51;19.40;99.90
5576;DHT22;2810;50.134;8.626;2022-07-24T04:56:20;19.40;99.90
5576;DHT22;2810;50.134;8.626;2022-07-24T04:58:46;19.40;99.90
5576;DHT22;2810;50.134;8.626;2022-07-24T05:01:12;19.70;99.90
5576;DHT22;2810;50.134;8.626;2022-07-24T05:03:38;19.50;99.90
5576;DHT22;2810;50.134;8.626;2022-07-24T05:06:03;19.50;99.90
5576;DHT22;2810;50.134;8.626;2022-07-24T05:08:29;19.60;99.90
5576;DHT22;2810;50.134;8.626;2022-07-24T05:10:54;19.50;99.90
5576;DHT22;2810;50.134;8.626;2022-07-24T05:13:20;19.60;99.90
5576;DHT22;2810;50.134;8.626;2022-07-24T05:15:45;19.60;99.90
5576;DHT22;2810;50.134;8.626;2022-07-24T05:18:11;19.70;99.90
5576;DHT22;2810;50.134;8.626;2022-07-24T05:20:36;19.70;99.90
5576;DHT22;2810;50.134;8.626;2022-07-24T05:23:02;19.70;99.90
5576;DHT22;2810;50.134;8.626;2022-07-24T05:25:27;19.80;99.90
5576;DHT22;2810;50.134;8.626;2022-07-24T05:27:52;19.70;99.90
5576;DHT22;2810;50.134;8.626;2022-07-24T05:30:18;19.70;99.90
5576;DHT22;2810;50.134;8.626;2022-07-24T05:32:43;19.70;99.90
5576;DHT22;2810;50.134;8.626;2022-07-24T05:35:09;19.80;99.90
5576;DHT22;2810;50.134;8.626;2022-07-24T05:37:34;19.90;99.90
5576;DHT22;2810;50.134;8.626;2022-07-24T05:40:00;20.00;99.90
5576;DHT22;2810;50.134;8.626;2022-07-24T05:42:25;20.10;99.90
5576;DHT22;2810;50.134;8.626;2022-07-24T05:44:51;20.20;99.90
5576;DHT22;2810;50.134;8.626;2022-07-24T05:47:16;20.20;99.90
5576;DHT22;2810;50.134;8.626;2022-07-24T05:49:42;20.30;99.90
5576;DHT22;2810;50.134;8.626;2022-07-24T05:52:07;20.20;99.90
5576;DHT22;2810;50.134;8.626;2022-07-24T05:54:33;20.20;99.90
5576;DHT22;2810;50.134;8.626;2022-07-24T05:56:58;20.30;99.90
5576;DHT22;2810;50.134;8.626;2022-07-24T05:59:23;20.70;99.90
5576;DHT22;2810;50.134;8.626;2022-07-24T06:01:49;20.50;99.90
5576;DHT22;2810;50.134;8.626;2022-07-24T06:04:15;20.60;99.90
5576;DHT22;2810;50.134;8.626;2022-07-24T06:06:40;20.70;99.90
5576;DHT22;2810;50.134;8.626;2022-07-24T06:09:06;20.80;99.90
5576;DHT22;2810;50.134;8.626;2022-07-24T06:11:31;21.00;99.90
5576;DHT22;2810;50.134;8.626;2022-07-24T06:13:57;21.10;99.90
5576;DHT22;2810;50.134;8.626;2022-07-24T06:16:22;21.30;99.90
5576;DHT22;2810;50.134;8.626;2022-07-24T06:18:48;21.30;99.90
5576;DHT22;2810;50.134;8.626;2022-07-24T06:21:13;21.50;99.90
5576;DHT22;2810;50.134;8.626;2022-07-24T06:23:38;21.60;99.90
5576;DHT22;2810;50.134;8.626;2022-07-24T06:26:04;21.70;99.90
5576;DHT22;2810;50.134;8.626;2022-07-24T06:28:29;21.90;99.90
5576;DHT22;2810;50.134;8.626;2022-07-24T06:30:55;22.00;99.90
5576;DHT22;2810;50.134;8.626;2022-07-24T06:33:20;22.50;99.90
5576;DHT22;2810;50.134;8.626;2022-07-24T06:35:46;22.80;99.90
5576;DHT22;2810;50.134;8.626;2022-07-24T06:38:11;23.10;99.90
5576;DHT22;2810;50.134;8.626;2022-07-24T06:40:37;23.50;99.90
5576;DHT22;2810;50.134;8.626;2022-07-24T06:43:03;24.00;99.90
5576;DHT22;2810;50.134;8.626;2022-07-24T06:45:28;24.50;99.90
5576;DHT22;2810;50.134;8.626;2022-07-24T06:47:56;25.10;99.90
5576;DHT22;2810;50.134;8.626;2022-07-24T06:50:21;25.60;99.90
5576;DHT22;2810;50.134;8.626;2022-07-24T06:52:47;26.00;99.90
5576;DHT22;2810;50.134;8.626;2022-07-24T06:55:12;26.50;99.90
5576;DHT22;2810;50.134;8.626;2022-07-24T06:57:38;26.80;99.90
5576;DHT22;2810;50.134;8.626;2022-07-24T07:00:04;27.00;99.90
5576;DHT22;2810;50.134;8.626;2022-07-24T07:02:30;27.20;99.90
5576;DHT22;2810;50.134;8.626;2022-07-24T07:04:56;27.60;99.60
5576;DHT22;2810;50.134;8.626;2022-07-24T07:07:21;27.70;97.90
5576;DHT22;2810;50.134;8.626;2022-07-24T07:09:46;28.00;97.20
5576;DHT22;2810;50.134;8.626;2022-07-24T07:12:12;28.30;96.30
5576;DHT22;2810;50.134;8.626;2022-07-24T07:14:37;28.70;95.20
5576;DHT22;2810;50.134;8.626;2022-07-24T07:17:03;29.00;93.80
5576;DHT22;2810;50.134;8.626;2022-07-24T07:19:28;29.00;93.50
5576;DHT22;2810;50.134;8.626;2022-07-24T07:21:54;29.20;92.60
5576;DHT22;2810;50.134;8.626;2022-07-24T07:24:19;29.40;91.60
5576;DHT22;2810;50.134;8.626;2022-07-24T07:26:45;29.60;90.40
5576;DHT22;2810;50.134;8.626;2022-07-24T07:29:10;30.10;90.20
5576;DHT22;2810;50.134;8.626;2022-07-24T07:31:36;30.20;88.00
5576;DHT22;2810;50.134;8.626;2022-07-24T07:34:01;30.40;86.40
5576;DHT22;2810;50.134;8.626;2022-07-24T07:36:26;30.60;85.20
5576;DHT22;2810;50.134;8.626;2022-07-24T07:38:52;30.90;84.20
5576;DHT22;2810;50.134;8.626;2022-07-24T07:41:17;30.90;84.00
5576;DHT22;2810;50.134;8.626;2022-07-24T07:43:46;31.20;81.60
5576;DHT22;2810;50.134;8.626;2022-07-24T07:46:14;31.40;80.90
5576;DHT22;2810;50.134;8.626;2022-07-24T07:48:40;31.70;78.30
5576;DHT22;2810;50.134;8.626;2022-07-24T07:51:05;31.70;77.70
5576;DHT22;2810;50.134;8.626;2022-07-24T07:53:31;31.90;76.40
5576;DHT22;2810;50.134;8.626;2022-07-24T07:55:56;32.20;74.40
5576;DHT22;2810;50.134;8.626;2022-07-24T07:58:22;32.10;72.20
5576;DHT22;2810;50.134;8.626;2022-07-24T08:00:48;32.00;72.80
5576;DHT22;2810;50.134;8.626;2022-07-24T08:03:13;32.20;72.00
5576;DHT22;2810;50.134;8.626;2022-07-24T08:05:39;32.40;72.30
5576;DHT22;2810;50.134;8.626;2022-07-24T08:08:04;32.30;70.60
5576;DHT22;2810;50.134;8.626;2022-07-24T08:10:30;32.30;71.00
5576;DHT22;2810;50.134;8.626;2022-07-24T08:12:55;33.00;70.30
5576;DHT22;2810;50.134;8.626;2022-07-24T08:15:21;32.20;69.40
5576;DHT22;2810;50.134;8.626;2022-07-24T08:17:50;32.90;68.70
5576;DHT22;2810;50.134;8.626;2022-07-24T08:20:16;32.90;68.60
5576;DHT22;2810;50.134;8.626;2022-07-24T08:22:41;33.30;69.40
5576;DHT22;2810;50.134;8.626;2022-07-24T08:25:07;33.50;66.70
5576;DHT22;2810;50.134;8.626;2022-07-24T08:27:35;33.70;65.90
5576;DHT22;2810;50.134;8.626;2022-07-24T08:30:00;34.30;63.80
5576;DHT22;2810;50.134;8.626;2022-07-24T08:32:26;34.20;63.30
5576;DHT22;2810;50.134;8.626;2022-07-24T08:34:51;33.70;63.30
5576;DHT22;2810;50.134;8.626;2022-07-24T08:37:18;33.60;62.30
5576;DHT22;2810;50.134;8.626;2022-07-24T08:39:44;33.80;61.20
5576;DHT22;2810;50.134;8.626;2022-07-24T08:42:09;33.80;62.40
5576;DHT22;2810;50.134;8.626;2022-07-24T08:44:34;33.80;62.10
5576;DHT22;2810;50.134;8.626;2022-07-24T08:47:00;33.90;62.50
5576;DHT22;2810;50.134;8.626;2022-07-24T08:49:26;34.00;63.50
5576;DHT22;2810;50.134;8.626;2022-07-24T08:51:52;34.50;62.20
5576;DHT22;2810;50.134;8.626;2022-07-24T08:54:18;35.00;60.90
5576;DHT22;2810;50.134;8.626;2022-07-24T08:56:44;35.70;59.60
5576;DHT22;2810;50.134;8.626;2022-07-24T08:59:17;35.50;58.80
5576;DHT22;2810;50.134;8.626;2022-07-24T09:01:43;35.50;56.50
5576;DHT22;2810;50.134;8.626;2022-07-24T09:04:30;35.40;56.40
5576;DHT22;2810;50.134;8.626;2022-07-24T09:06:57;35.20;57.10
5576;DHT22;2810;50.134;8.626;2022-07-24T09:09:22;35.10;56.30
5576;DHT22;2810;50.134;8.626;2022-07-24T09:11:48;35.10;57.40
5576;DHT22;2810;50.134;8.626;2022-07-24T09:14:13;35.20;57.30
5576;DHT22;2810;50.134;8.626;2022-07-24T09:17:07;35.50;56.70
5576;DHT22;2810;50.134;8.626;2022-07-24T09:19:51;35.80;54.00
5576;DHT22;2810;50.134;8.626;2022-07-24T09:22:39;35.50;54.50
5576;DHT22;2810;50.134;8.626;2022-07-24T09:25:19;35.70;54.70
5576;DHT22;2810;50.134;8.626;2022-07-24T09:27:52;35.80;54.70
5576;DHT22;2810;50.134;8.626;2022-07-24T09:32:53;35.90;52.60
5576;DHT22;2810;50.134;8.626;2022-07-24T09:35:21;36.00;52.10
5576;DHT22;2810;50.134;8.626;2022-07-24T09:37:52;36.10;51.70
5576;DHT22;2810;50.134;8.626;2022-07-24T09:40:18;36.00;53.20
5576;DHT22;2810;50.134;8.626;2022-07-24T09:42:43;36.40;53.20
5576;DHT22;2810;50.134;8.626;2022-07-24T09:45:09;36.10;50.50
5576;DHT22;2810;50.134;8.626;2022-07-24T09:47:36;36.40;50.60
5576;DHT22;2810;50.134;8.626;2022-07-24T09:50:15;36.30;50.60
5576;DHT22;2810;50.134;8.626;2022-07-24T09:52:41;36.30;50.40
5576;DHT22;2810;50.134;8.626;2022-07-24T09:55:18;35.80;49.60
5576;DHT22;2810;50.134;8.626;2022-07-24T09:57:44;35.60;50.00
5576;DHT22;2810;50.134;8.626;2022-07-24T10:00:10;35.80;49.90
5576;DHT22;2810;50.134;8.626;2022-07-24T10:02:36;36.10;48.60
5576;DHT22;2810;50.134;8.626;2022-07-24T10:05:02;36.10;49.30
5576;DHT22;2810;50.134;8.626;2022-07-24T10:07:28;36.10;50.10
5576;DHT22;2810;50.134;8.626;2022-07-24T10:09:55;36.60;49.00
5576;DHT22;2810;50.134;8.626;2022-07-24T10:12:25;36.60;48.50
5576;DHT22;2810;50.134;8.626;2022-07-24T10:14:52;36.90;49.00
5576;DHT22;2810;50.134;8.626;2022-07-24T10:17:18;36.70;48.00
5576;DHT22;2810;50.134;8.626;2022-07-24T10:19:47;36.60;48.70
5576;DHT22;2810;50.134;8.626;2022-07-24T10:22:13;36.60;48.00
5576;DHT22;2810;50.134;8.626;2022-07-24T10:24:53;36.10;48.40
5576;DHT22;2810;50.134;8.626;2022-07-24T10:27:22;35.90;48.60
5576;DHT22;2810;50.134;8.626;2022-07-24T10:29:48;35.80;50.90
5576;DHT22;2810;50.134;8.626;2022-07-24T10:32:16;36.20;49.70
5576;DHT22;2810;50.134;8.626;2022-07-24T10:34:55;36.20;49.40
5576;DHT22;2810;50.134;8.626;2022-07-24T10:42:29;36.60;48.40
5576;DHT22;2810;50.134;8.626;2022-07-24T10:47:39;37.00;47.90
5576;DHT22;2810;50.134;8.626;2022-07-24T10:50:04;37.20;47.80
5576;DHT22;2810;50.134;8.626;2022-07-24T10:52:30;37.30;47.20
5576;DHT22;2810;50.134;8.626;2022-07-24T10:57:45;36.50;48.50
5576;DHT22;2810;50.134;8.626;2022-07-24T11:00:20;36.50;47.20
5576;DHT22;2810;50.134;8.626;2022-07-24T11:02:54;36.00;47.80
5576;DHT22;2810;50.134;8.626;2022-07-24T11:05:27;35.30;48.60
5576;DHT22;2810;50.134;8.626;2022-07-24T11:18:36;35.40;50.00
5576;DHT22;2810;50.134;8.626;2022-07-24T11:21:01;35.60;50.40
5576;DHT22;2810;50.134;8.626;2022-07-24T11:23:27;36.10;50.40
5576;DHT22;2810;50.134;8.626;2022-07-24T11:26:35;36.00;49.10
5576;DHT22;2810;50.134;8.626;2022-07-24T11:28:38;35.90;49.40
5576;DHT22;2810;50.134;8.626;2022-07-24T11:31:03;35.30;49.30
5576;DHT22;2810;50.134;8.626;2022-07-24T11:33:29;35.30;48.90
5576;DHT22;2810;50.134;8.626;2022-07-24T11:35:54;35.30;49.80
5576;DHT22;2810;50.134;8.626;2022-07-24T11:38:20;35.30;49.90
5576;DHT22;2810;50.134;8.626;2022-07-24T11:40:52;35.20;49.80
5576;DHT22;2810;50.134;8.626;2022-07-24T11:43:29;35.20;49.70
5576;DHT22;2810;50.134;8.626;2022-07-24T11:45:54;35.20;49.00
5576;DHT22;2810;50.134;8.626;2022-07-24T11:48:20;35.00;50.50
5576;DHT22;2810;50.134;8.626;2022-07-24T11:50:45;35.30;50.20
5576;DHT22;2810;50.134;8.626;2022-07-24T11:53:11;35.70;50.30
5576;DHT22;2810;50.134;8.626;2022-07-24T11:55:37;35.70;50.40
5576;DHT22;2810;50.134;8.626;2022-07-24T11:58:02;35.90;50.10
5576;DHT22;2810;50.134;8.626;2022-07-24T12:00:28;35.70;48.70
5576;DHT22;2810;50.134;8.626;2022-07-24T12:02:54;35.40;50.00
5576;DHT22;2810;50.134;8.626;2022-07-24T12:05:29;35.60;49.80
5576;DHT22;2810;50.134;8.626;2022-07-24T12:07:55;35.10;49.00
5576;DHT22;2810;50.134;8.626;2022-07-24T12:10:22;35.10;50.80
5576;DHT22;2810;50.134;8.626;2022-07-24T12:12:48;35.10;51.10
5576;DHT22;2810;50.134;8.626;2022-07-24T12:15:14;35.40;50.50
5576;DHT22;2810;50.134;8.626;2022-07-24T12:17:53;35.40;50.10
5576;DHT22;2810;50.134;8.626;2022-07-24T12:20:21;35.30;50.20
5576;DHT22;2810;50.134;8.626;2022-07-24T12:22:47;35.10;50.00
5576;DHT22;2810;50.134;8.626;2022-07-24T12:25:12;35.30;50.40
5576;DHT22;2810;50.134;8.626;2022-07-24T12:27:40;35.00;50.20
5576;DHT22;2810;50.134;8.626;2022-07-24T12:30:28;34.70;50.70
5576;DHT22;2810;50.134;8.626;2022-07-24T12:32:52;34.70;51.30
5576;DHT22;2810;50.134;8.626;2022-07-24T12:35:17;34.60;50.60
5576;DHT22;2810;50.134;8.626;2022-07-24T12:37:43;34.40;50.90
5576;DHT22;2810;50.134;8.626;2022-07-24T12:40:08;34.30;50.70
5576;DHT22;2810;50.134;8.626;2022-07-24T12:42:34;34.20;50.70
5576;DHT22;2810;50.134;8.626;2022-07-24T12:45:07;34.10;51.40
5576;DHT22;2810;50.134;8.626;2022-07-24T12:47:33;33.80;51.60
5576;DHT22;2810;50.134;8.626;2022-07-24T12:50:10;33.70;52.10
5576;DHT22;2810;50.134;8.626;2022-07-24T12:52:36;33.60;51.50
5576;DHT22;2810;50.134;8.626;2022-07-24T12:55:03;33.60;51.00
5576;DHT22;2810;50.134;8.626;2022-07-24T12:57:28;33.50;50.80
5576;DHT22;2810;50.134;8.626;2022-07-24T12:59:58;33.50;51.00
5576;DHT22;2810;50.134;8.626;2022-07-24T13:02:24;33.30;51.30
5576;DHT22;2810;50.134;8.626;2022-07-24T13:04:51;33.30;52.00
5576;DHT22;2810;50.134;8.626;2022-07-24T13:07:18;33.50;52.60
5576;DHT22;2810;50.134;8.626;2022-07-24T13:09:43;33.60;50.60
5576;DHT22;2810;50.134;8.626;2022-07-24T13:12:09;33.80;51.90
5576;DHT22;2810;50.134;8.626;2022-07-24T13:14:36;33.80;52.00
5576;DHT22;2810;50.134;8.626;2022-07-24T13:17:03;33.90;50.80
5576;DHT22;2810;50.134;8.626;2022-07-24T13:19:28;33.90;50.40
5576;DHT22;2810;50.134;8.626;2022-07-24T13:21:54;33.90;51.40
5576;DHT22;2810;50.134;8.626;2022-07-24T13:24:19;33.80;50.90
5576;DHT22;2810;50.134;8.626;2022-07-24T13:26:45;34.10;50.70
5576;DHT22;2810;50.134;8.626;2022-07-24T13:29:11;33.90;51.30
5576;DHT22;2810;50.134;8.626;2022-07-24T13:31:36;33.80;50.20
5576;DHT22;2810;50.134;8.626;2022-07-24T13:34:02;33.80;50.60
5576;DHT22;2810;50.134;8.626;2022-07-24T13:36:28;34.00;50.70
5576;DHT22;2810;50.134;8.626;2022-07-24T13:38:53;34.20;50.10
5576;DHT22;2810;50.134;8.626;2022-07-24T13:41:19;34.30;51.30
5576;DHT22;2810;50.134;8.626;2022-07-24T13:43:46;34.40;50.80
5576;DHT22;2810;50.134;8.626;2022-07-24T13:46:14;34.20;50.00
5576;DHT22;2810;50.134;8.626;2022-07-24T13:48:40;34.10;50.40
5576;DHT22;2810;50.134;8.626;2022-07-24T13:51:05;33.90;49.90
5576;DHT22;2810;50.134;8.626;2022-07-24T13:53:31;34.10;50.50
5576;DHT22;2810;50.134;8.626;2022-07-24T13:55:56;34.00;50.00
5576;DHT22;2810;50.134;8.626;2022-07-24T13:58:22;34.00;49.30
5576;DHT22;2810;50.134;8.626;2022-07-24T14:00:47;34.00;48.90
5576;DHT22;2810;50.134;8.626;2022-07-24T14:03:13;33.90;48.80
5576;DHT22;2810;50.134;8.626;2022-07-24T14:05:38;33.90;49.20
5576;DHT22;2810;50.134;8.626;2022-07-24T14:08:04;33.70;49.40
5576;DHT22;2810;50.134;8.626;2022-07-24T14:10:29;33.70;48.40
5576;DHT22;2810;50.134;8.626;2022-07-24T14:12:54;33.60;48.70
5576;DHT22;2810;50.134;8.626;2022-07-24T14:15:20;33.60;50.70
5576;DHT22;2810;50.134;8.626;2022-07-24T14:17:45;33.70;49.50
5576;DHT22;2810;50.134;8.626;2022-07-24T14:20:11;33.70;49.80
5576;DHT22;2810;50.134;8.626;2022-07-24T14:22:40;33.90;49.50
5576;DHT22;2810;50.134;8.626;2022-07-24T14:25:05;34.10;48.60
5576;DHT22;2810;50.134;8.626;2022-07-24T14:27:31;33.90;48.20
5576;DHT22;2810;50.134;8.626;2022-07-24T14:29:56;33.90;49.20
5576;DHT22;2810;50.134;8.626;2022-07-24T14:32:22;33.80;49.50
5576;DHT22;2810;50.134;8.626;2022-07-24T14:34:47;33.90;48.50
5576;DHT22;2810;50.134;8.626;2022-07-24T14:37:13;33.90;49.80
5576;DHT22;2810;50.134;8.626;2022-07-24T14:39:38;33.60;50.20
5576;DHT22;2810;50.134;8.626;2022-07-24T14:42:04;33.70;49.90
5576;DHT22;2810;50.134;8.626;2022-07-24T14:44:29;33.50;48.90
5576;DHT22;2810;50.134;8.626;2022-07-24T14:46:55;33.50;49.40
5576;DHT22;2810;50.134;8.626;2022-07-24T14:49:20;33.40;49.10
5576;DHT22;2810;50.134;8.626;2022-07-24T14:51:46;33.40;50.60
5576;DHT22;2810;50.134;8.626;2022-07-24T14:54:11;33.30;49.50
5576;DHT22;2810;50.134;8.626;2022-07-24T14:56:37;33.40;49.50
5576;DHT22;2810;50.134;8.626;2022-07-24T14:59:03;33.00;49.90
5576;DHT22;2810;50.134;8.626;2022-07-24T15:01:28;32.90;49.60
5576;DHT22;2810;50.134;8.626;2022-07-24T15:03:54;33.00;49.50
5576;DHT22;2810;50.134;8.626;2022-07-24T15:06:19;32.70;49.90
5576;DHT22;2810;50.134;8.626;2022-07-24T15:08:45;32.70;49.60
5576;DHT22;2810;50.134;8.626;2022-07-24T15:11:10;32.60;50.30
5576;DHT22;2810;50.134;8.626;2022-07-24T15:13:36;32.50;50.20
5576;DHT22;2810;50.134;8.626;2022-07-24T15:16:05;32.40;51.00
5576;DHT22;2810;50.134;8.626;2022-07-24T15:18:31;32.50;50.00
5576;DHT22;2810;50.134;8.626;2022-07-24T15:20:57;32.50;50.80
5576;DHT22;2810;50.134;8.626;2022-07-24T15:23:22;32.50;50.20
5576;DHT22;2810;50.134;8.626;2022-07-24T15:25:48;32.50;50.90
5576;DHT22;2810;50.134;8.626;2022-07-24T15:28:13;32.50;51.50
5576;DHT22;2810;50.134;8.626;2022-07-24T15:30:39;32.70;51.50
5576;DHT22;2810;50.134;8.626;2022-07-24T15:33:04;32.60;50.90
5576;DHT22;2810;50.134;8.626;2022-07-24T15:35:30;32.40;50.30
5576;DHT22;2810;50.134;8.626;2022-07-24T15:37:55;32.30;50.80
5576;DHT22;2810;50.134;8.626;2022-07-24T15:40:21;32.30;49.90
5576;DHT22;2810;50.134;8.626;2022-07-24T15:42:46;32.10;50.30
5576;DHT22;2810;50.134;8.626;2022-07-24T15:45:12;32.10;50.90
5576;DHT22;2810;50.134;8.626;2022-07-24T15:47:37;32.00;51.30
5576;DHT22;2810;50.134;8.626;2022-07-24T15:50:03;32.00;51.70
5576;DHT22;2810;50.134;8.626;2022-07-24T15:52:29;32.10;51.60
5576;DHT22;2810;50.134;8.626;2022-07-24T15:54:54;32.10;50.80
5576;DHT22;2810;50.134;8.626;2022-07-24T15:57:19;32.00;50.70
5576;DHT22;2810;50.134;8.626;2022-07-24T15:59:45;31.90;51.30
5576;DHT22;2810;50.134;8.626;2022-07-24T16:02:10;31.90;51.60
5576;DHT22;2810;50.134;8.626;2022-07-24T16:04:36;31.80;52.50
5576;DHT22;2810;50.134;8.626;2022-07-24T16:07:01;31.80;51.90
5576;DHT22;2810;50.134;8.626;2022-07-24T16:09:28;31.90;52.50
5576;DHT22;2810;50.134;8.626;2022-07-24T16:11:53;31.90;52.00
5576;DHT22;2810;50.134;8.626;2022-07-24T16:14:19;31.80;51.90
5576;DHT22;2810;50.134;8.626;2022-07-24T16:16:44;31.80;51.80
5576;DHT22;2810;50.134;8.626;2022-07-24T16:19:10;31.70;52.10